JST568 YMML-YBBN
Flight info
| Callsign | JST568 |
|---|---|
| Flight time | 1h 48m |
| Altitude | 35000 |
| Route | ML H66 LAGOB H252 BN |
| Aircraft | A321/M-SDE3FGHIRWY/LB1 |
Departure
| Time | 2026-05-07 11:21 |
|---|---|
| Airport | Melbourne Airport (YMML) |
Arrival
| Time | 2026-05-07 13:10 |
|---|---|
| Airport | Brisbane International Airport (YBBN) |
| Time | Latitude | Longitude | Altitude | Speed | Heading |
|---|---|---|---|---|---|
| 2026-05-07 10:40 | -37.67530 | 144.84791 | 418 ft | 0 kts | 171° |
| 2026-05-07 11:06 | -37.67511 | 144.84788 | 418 ft | 4 kts | 173° |
| 2026-05-07 11:07 | -37.67484 | 144.84784 | 418 ft | 4 kts | 174° |
| 2026-05-07 11:07 | -37.67457 | 144.84781 | 418 ft | 4 kts | 175° |
| 2026-05-07 11:07 | -37.67430 | 144.84778 | 418 ft | 4 kts | 174° |
| 2026-05-07 11:07 | -37.67419 | 144.84777 | 418 ft | 0 kts | 171° |
| 2026-05-07 11:11 | -37.67423 | 144.84777 | 418 ft | 3 kts | 178° |
| 2026-05-07 11:11 | -37.67451 | 144.84744 | 418 ft | 7 kts | 263° |
| 2026-05-07 11:11 | -37.67445 | 144.84669 | 418 ft | 10 kts | 267° |
| 2026-05-07 11:11 | -37.67454 | 144.84575 | 418 ft | 12 kts | 261° |
| 2026-05-07 11:12 | -37.67468 | 144.84462 | 418 ft | 14 kts | 261° |
| 2026-05-07 11:12 | -37.67482 | 144.84334 | 418 ft | 13 kts | 262° |
| 2026-05-07 11:12 | -37.67493 | 144.84241 | 418 ft | 9 kts | 262° |
| 2026-05-07 11:12 | -37.67498 | 144.84158 | 418 ft | 10 kts | 285° |
| 2026-05-07 11:13 | -37.67442 | 144.84105 | 418 ft | 12 kts | 351° |
| 2026-05-07 11:13 | -37.67352 | 144.84088 | 418 ft | 14 kts | 351° |
| 2026-05-07 11:13 | -37.67245 | 144.84068 | 418 ft | 17 kts | 352° |
| 2026-05-07 11:13 | -37.67124 | 144.84046 | 418 ft | 17 kts | 351° |
| 2026-05-07 11:14 | -37.67004 | 144.84023 | 418 ft | 19 kts | 351° |
| 2026-05-07 11:14 | -37.66868 | 144.83998 | 418 ft | 19 kts | 352° |
| 2026-05-07 11:14 | -37.66805 | 144.83987 | 418 ft | 8 kts | 351° |
| 2026-05-07 11:14 | -37.66728 | 144.83972 | 418 ft | 13 kts | 351° |
| 2026-05-07 11:15 | -37.66630 | 144.83953 | 418 ft | 16 kts | 352° |
| 2026-05-07 11:15 | -37.66545 | 144.83942 | 418 ft | 5 kts | 26° |
| 2026-05-07 11:15 | -37.66519 | 144.84002 | 418 ft | 11 kts | 83° |
| 2026-05-07 11:15 | -37.66525 | 144.84096 | 418 ft | 9 kts | 94° |
| 2026-05-07 11:16 | -37.66493 | 144.84139 | 418 ft | 9 kts | 353° |
| 2026-05-07 11:16 | -37.66423 | 144.84124 | 418 ft | 11 kts | 351° |
| 2026-05-07 11:16 | -37.66338 | 144.84108 | 418 ft | 13 kts | 351° |
| 2026-05-07 11:16 | -37.66237 | 144.84089 | 418 ft | 16 kts | 352° |
| 2026-05-07 11:17 | -37.66120 | 144.84067 | 418 ft | 18 kts | 351° |
| 2026-05-07 11:17 | -37.65987 | 144.84043 | 418 ft | 20 kts | 352° |
| 2026-05-07 11:17 | -37.65841 | 144.84015 | 418 ft | 22 kts | 351° |
| 2026-05-07 11:17 | -37.65687 | 144.83987 | 418 ft | 22 kts | 351° |
| 2026-05-07 11:18 | -37.65555 | 144.83961 | 418 ft | 15 kts | 350° |
| 2026-05-07 11:18 | -37.65446 | 144.83932 | 418 ft | 15 kts | 347° |
| 2026-05-07 11:18 | -37.65368 | 144.83908 | 418 ft | 12 kts | 339° |
| 2026-05-07 11:18 | -37.65305 | 144.83832 | 418 ft | 14 kts | 288° |
| 2026-05-07 11:19 | -37.65304 | 144.83708 | 418 ft | 14 kts | 262° |
| 2026-05-07 11:19 | -37.65310 | 144.83656 | 418 ft | 0 kts | 261° |
| 2026-05-07 11:19 | -37.65311 | 144.83647 | 418 ft | 4 kts | 261° |
| 2026-05-07 11:19 | -37.65325 | 144.83587 | 418 ft | 9 kts | 244° |
| 2026-05-07 11:20 | -37.65368 | 144.83525 | 418 ft | 11 kts | 215° |
| 2026-05-07 11:20 | -37.65426 | 144.83512 | 418 ft | 0 kts | 173° |
| 2026-05-07 11:20 | -37.65541 | 144.83533 | 418 ft | 50 kts | 172° |
| 2026-05-07 11:21 | -37.66117 | 144.83641 | 418 ft | 115 kts | 174° |
| 2026-05-07 11:21 | -37.67103 | 144.83826 | 418 ft | 169 kts | 173° |
| 2026-05-07 11:21 | -37.68345 | 144.84070 | 761 ft | 182 kts | 176° |
| 2026-05-07 11:21 | -37.69586 | 144.84309 | 1410 ft | 179 kts | 176° |
| 2026-05-07 11:22 | -37.70810 | 144.84590 | 1985 ft | 181 kts | 162° |
| 2026-05-07 11:22 | -37.71824 | 144.85644 | 2223 ft | 215 kts | 125° |
| 2026-05-07 11:22 | -37.72189 | 144.87641 | 2147 ft | 256 kts | 85° |
| 2026-05-07 11:22 | -37.71568 | 144.89804 | 2461 ft | 270 kts | 51° |
| 2026-05-07 11:23 | -37.70119 | 144.91279 | 3039 ft | 268 kts | 18° |
| 2026-05-07 11:23 | -37.68318 | 144.91617 | 3675 ft | 260 kts | 346° |
| 2026-05-07 11:23 | -37.66676 | 144.90778 | 4212 ft | 255 kts | 315° |
| 2026-05-07 11:23 | -37.65666 | 144.89062 | 4883 ft | 244 kts | 289° |
| 2026-05-07 11:24 | -37.64930 | 144.87152 | 5759 ft | 244 kts | 294° |
| 2026-05-07 11:24 | -37.63760 | 144.85504 | 6326 ft | 265 kts | 317° |
| 2026-05-07 11:24 | -37.61988 | 144.84608 | 6921 ft | 287 kts | 346° |
| 2026-05-07 11:24 | -37.59949 | 144.84845 | 7549 ft | 304 kts | 15° |
| 2026-05-07 11:25 | -37.58064 | 144.86114 | 8229 ft | 309 kts | 31° |
| 2026-05-07 11:25 | -37.56269 | 144.87666 | 8818 ft | 316 kts | 33° |
| 2026-05-07 11:25 | -37.54428 | 144.89217 | 9404 ft | 321 kts | 31° |
| 2026-05-07 11:25 | -37.52499 | 144.90702 | 9843 ft | 328 kts | 29° |
| 2026-05-07 11:26 | -37.50510 | 144.92168 | 10068 ft | 339 kts | 29° |
| 2026-05-07 11:26 | -37.48453 | 144.93696 | 10321 ft | 356 kts | 30° |
| 2026-05-07 11:26 | -37.46252 | 144.95366 | 10551 ft | 374 kts | 31° |
| 2026-05-07 11:26 | -37.44015 | 144.97083 | 10812 ft | 389 kts | 31° |
| 2026-05-07 11:27 | -37.41673 | 144.98886 | 11228 ft | 398 kts | 32° |
| 2026-05-07 11:27 | -37.39300 | 145.00711 | 11810 ft | 401 kts | 32° |
| 2026-05-07 11:27 | -37.36898 | 145.02546 | 12338 ft | 406 kts | 32° |
| 2026-05-07 11:27 | -37.34466 | 145.04390 | 12877 ft | 411 kts | 31° |
| 2026-05-07 11:28 | -37.32001 | 145.06256 | 13421 ft | 414 kts | 31° |
| 2026-05-07 11:28 | -37.29521 | 145.08138 | 13960 ft | 418 kts | 31° |
| 2026-05-07 11:28 | -37.27021 | 145.10036 | 14481 ft | 421 kts | 31° |
| 2026-05-07 11:28 | -37.24504 | 145.11946 | 15001 ft | 425 kts | 31° |
| 2026-05-07 11:29 | -37.21961 | 145.13871 | 15502 ft | 429 kts | 31° |
| 2026-05-07 11:29 | -37.19389 | 145.15812 | 16002 ft | 432 kts | 31° |
| 2026-05-07 11:29 | -37.16831 | 145.17747 | 16476 ft | 436 kts | 31° |
| 2026-05-07 11:29 | -37.14229 | 145.19716 | 16951 ft | 439 kts | 31° |
| 2026-05-07 11:30 | -37.11600 | 145.21703 | 17426 ft | 442 kts | 31° |
| 2026-05-07 11:30 | -37.08952 | 145.23702 | 17887 ft | 446 kts | 31° |
| 2026-05-07 11:30 | -37.06394 | 145.25921 | 18318 ft | 449 kts | 38° |
| 2026-05-07 11:30 | -37.03950 | 145.28375 | 18771 ft | 452 kts | 40° |
| 2026-05-07 11:31 | -37.01537 | 145.30916 | 19212 ft | 454 kts | 41° |
| 2026-05-07 11:31 | -36.99124 | 145.33493 | 19627 ft | 458 kts | 41° |
| 2026-05-07 11:31 | -36.96676 | 145.36074 | 20049 ft | 461 kts | 40° |
| 2026-05-07 11:31 | -36.94200 | 145.38634 | 20470 ft | 463 kts | 40° |
| 2026-05-07 11:32 | -36.89176 | 145.43755 | 21279 ft | 468 kts | 39° |
| 2026-05-07 11:32 | -36.86650 | 145.46342 | 21668 ft | 471 kts | 39° |
| 2026-05-07 11:32 | -36.84116 | 145.48955 | 22045 ft | 473 kts | 40° |
| 2026-05-07 11:33 | -36.81571 | 145.51581 | 22414 ft | 476 kts | 40° |
| 2026-05-07 11:33 | -36.79012 | 145.54213 | 22777 ft | 478 kts | 39° |
| 2026-05-07 11:33 | -36.76468 | 145.56824 | 23106 ft | 481 kts | 39° |
| 2026-05-07 11:33 | -36.73874 | 145.59481 | 23444 ft | 483 kts | 39° |
| 2026-05-07 11:34 | -36.71270 | 145.62143 | 23784 ft | 486 kts | 39° |
| 2026-05-07 11:34 | -36.68651 | 145.64818 | 24114 ft | 488 kts | 39° |
| 2026-05-07 11:34 | -36.66017 | 145.67512 | 24442 ft | 490 kts | 39° |
| 2026-05-07 11:34 | -36.63376 | 145.70211 | 24772 ft | 492 kts | 39° |
| 2026-05-07 11:35 | -36.60726 | 145.72915 | 25090 ft | 494 kts | 39° |
| 2026-05-07 11:35 | -36.58058 | 145.75627 | 25372 ft | 497 kts | 39° |
| 2026-05-07 11:35 | -36.55379 | 145.78352 | 25670 ft | 499 kts | 39° |
| 2026-05-07 11:35 | -36.52690 | 145.81087 | 25969 ft | 500 kts | 39° |
| 2026-05-07 11:36 | -36.49992 | 145.83834 | 26284 ft | 502 kts | 39° |
| 2026-05-07 11:36 | -36.47288 | 145.86584 | 26578 ft | 503 kts | 39° |
| 2026-05-07 11:36 | -36.45490 | 145.88410 | 26763 ft | 504 kts | 39° |
| 2026-05-07 11:36 | -36.41842 | 145.92105 | 27124 ft | 507 kts | 39° |
| 2026-05-07 11:37 | -36.39102 | 145.94873 | 27364 ft | 509 kts | 39° |
| 2026-05-07 11:37 | -36.37280 | 145.96713 | 27534 ft | 510 kts | 39° |
| 2026-05-07 11:37 | -36.34526 | 145.99496 | 27792 ft | 512 kts | 39° |
| 2026-05-07 11:37 | -36.31758 | 146.02295 | 28033 ft | 514 kts | 39° |
| 2026-05-07 11:38 | -36.28982 | 146.05103 | 28275 ft | 516 kts | 39° |
| 2026-05-07 11:38 | -36.26196 | 146.07914 | 28544 ft | 517 kts | 39° |
| 2026-05-07 11:38 | -36.23403 | 146.10721 | 28782 ft | 518 kts | 39° |
| 2026-05-07 11:38 | -36.20595 | 146.13540 | 29011 ft | 520 kts | 39° |
| 2026-05-07 11:39 | -36.17785 | 146.16365 | 29215 ft | 521 kts | 39° |
| 2026-05-07 11:39 | -36.14961 | 146.19201 | 29420 ft | 523 kts | 39° |
| 2026-05-07 11:39 | -36.12131 | 146.22037 | 29684 ft | 523 kts | 39° |
| 2026-05-07 11:39 | -36.09306 | 146.24870 | 29973 ft | 522 kts | 39° |
| 2026-05-07 11:40 | -36.06488 | 146.27694 | 30251 ft | 522 kts | 39° |
| 2026-05-07 11:40 | -36.03673 | 146.30513 | 30570 ft | 520 kts | 39° |
| 2026-05-07 11:40 | -36.00899 | 146.33285 | 30828 ft | 519 kts | 39° |
| 2026-05-07 11:40 | -35.98083 | 146.36095 | 31115 ft | 518 kts | 39° |
| 2026-05-07 11:41 | -35.95295 | 146.38876 | 31462 ft | 515 kts | 39° |
| 2026-05-07 11:41 | -35.92507 | 146.41652 | 31743 ft | 514 kts | 39° |
| 2026-05-07 11:41 | -35.89726 | 146.44421 | 32001 ft | 513 kts | 39° |
| 2026-05-07 11:41 | -35.86948 | 146.47185 | 32278 ft | 511 kts | 39° |
| 2026-05-07 11:42 | -35.84181 | 146.49936 | 32511 ft | 511 kts | 39° |
| 2026-05-07 11:42 | -35.81416 | 146.52686 | 32797 ft | 509 kts | 39° |
| 2026-05-07 11:42 | -35.78661 | 146.55421 | 33021 ft | 508 kts | 39° |
| 2026-05-07 11:42 | -35.75906 | 146.58143 | 33287 ft | 507 kts | 39° |
| 2026-05-07 11:43 | -35.73157 | 146.60858 | 33498 ft | 506 kts | 39° |
| 2026-05-07 11:43 | -35.70446 | 146.63539 | 33708 ft | 506 kts | 39° |
| 2026-05-07 11:43 | -35.67711 | 146.66245 | 33951 ft | 504 kts | 39° |
| 2026-05-07 11:43 | -35.64976 | 146.68947 | 34153 ft | 504 kts | 39° |
| 2026-05-07 11:44 | -35.62237 | 146.71649 | 34289 ft | 504 kts | 39° |
| 2026-05-07 11:44 | -35.59506 | 146.74338 | 34506 ft | 503 kts | 39° |
| 2026-05-07 11:44 | -35.56769 | 146.77031 | 34673 ft | 503 kts | 39° |
| 2026-05-07 11:44 | -35.54032 | 146.79726 | 34845 ft | 503 kts | 39° |
| 2026-05-07 11:45 | -35.51303 | 146.82409 | 35000 ft | 503 kts | 39° |
| 2026-05-07 11:45 | -35.48574 | 146.85085 | 35197 ft | 502 kts | 39° |
| 2026-05-07 11:45 | -35.45846 | 146.87762 | 35298 ft | 503 kts | 39° |
| 2026-05-07 11:46 | -35.40351 | 146.93155 | 35296 ft | 509 kts | 39° |
| 2026-05-07 11:46 | -35.34778 | 146.98605 | 35297 ft | 513 kts | 39° |
| 2026-05-07 11:47 | -35.29192 | 147.04056 | 35297 ft | 514 kts | 39° |
| 2026-05-07 11:47 | -35.23639 | 147.09468 | 35297 ft | 514 kts | 39° |
| 2026-05-07 11:48 | -35.18042 | 147.14906 | 35301 ft | 514 kts | 38° |
| 2026-05-07 11:48 | -35.12449 | 147.20335 | 35301 ft | 514 kts | 38° |
| 2026-05-07 11:49 | -35.06839 | 147.25777 | 35262 ft | 515 kts | 38° |
| 2026-05-07 11:49 | -35.01224 | 147.31209 | 35258 ft | 515 kts | 38° |
| 2026-05-07 11:50 | -34.95606 | 147.36631 | 35263 ft | 515 kts | 38° |
| 2026-05-07 11:50 | -34.89985 | 147.42047 | 35267 ft | 515 kts | 38° |
| 2026-05-07 11:51 | -34.84366 | 147.47457 | 35272 ft | 515 kts | 38° |
| 2026-05-07 11:51 | -34.78744 | 147.52860 | 35277 ft | 515 kts | 38° |
| 2026-05-07 11:52 | -34.73115 | 147.58253 | 35259 ft | 515 kts | 38° |
| 2026-05-07 11:52 | -34.67517 | 147.63609 | 35240 ft | 515 kts | 38° |
| 2026-05-07 11:53 | -34.61890 | 147.68982 | 35237 ft | 514 kts | 38° |
| 2026-05-07 11:53 | -34.56262 | 147.74354 | 35236 ft | 515 kts | 38° |
| 2026-05-07 11:54 | -34.50630 | 147.79717 | 35235 ft | 515 kts | 38° |
| 2026-05-07 11:54 | -34.44978 | 147.85080 | 35232 ft | 516 kts | 37° |
| 2026-05-07 11:55 | -34.39317 | 147.90451 | 35263 ft | 516 kts | 37° |
| 2026-05-07 11:55 | -34.33666 | 147.95803 | 35279 ft | 516 kts | 37° |
| 2026-05-07 11:56 | -34.28001 | 148.01163 | 35300 ft | 516 kts | 37° |
| 2026-05-07 11:56 | -34.22380 | 148.06464 | 35277 ft | 516 kts | 37° |
| 2026-05-07 11:57 | -34.16712 | 148.11799 | 35246 ft | 517 kts | 37° |
| 2026-05-07 11:57 | -34.11048 | 148.17124 | 35280 ft | 515 kts | 37° |
| 2026-05-07 11:58 | -34.05388 | 148.22441 | 35252 ft | 515 kts | 37° |
| 2026-05-07 11:58 | -33.99723 | 148.27748 | 35234 ft | 516 kts | 37° |
| 2026-05-07 11:59 | -33.94049 | 148.33054 | 35231 ft | 516 kts | 37° |
| 2026-05-07 11:59 | -33.88365 | 148.38361 | 35242 ft | 517 kts | 37° |
| 2026-05-07 12:00 | -33.82684 | 148.43664 | 35267 ft | 516 kts | 37° |
| 2026-05-07 12:00 | -33.77032 | 148.48924 | 35275 ft | 516 kts | 36° |
| 2026-05-07 12:01 | -33.71337 | 148.54208 | 35245 ft | 517 kts | 36° |
| 2026-05-07 12:01 | -33.65634 | 148.59500 | 35250 ft | 517 kts | 36° |
| 2026-05-07 12:02 | -33.59937 | 148.64775 | 35262 ft | 517 kts | 36° |
| 2026-05-07 12:02 | -33.54236 | 148.70041 | 35245 ft | 517 kts | 36° |
| 2026-05-07 12:03 | -33.48565 | 148.75277 | 35264 ft | 517 kts | 35° |
| 2026-05-07 12:03 | -33.42858 | 148.80532 | 35261 ft | 518 kts | 35° |
| 2026-05-07 12:04 | -33.37138 | 148.85797 | 35296 ft | 517 kts | 35° |
| 2026-05-07 12:04 | -33.31425 | 148.91033 | 35325 ft | 517 kts | 34° |
| 2026-05-07 12:05 | -33.25710 | 148.96276 | 35297 ft | 518 kts | 34° |
| 2026-05-07 12:05 | -33.19984 | 149.01507 | 35294 ft | 517 kts | 34° |
| 2026-05-07 12:06 | -33.14265 | 149.06728 | 35313 ft | 517 kts | 34° |
| 2026-05-07 12:06 | -33.08596 | 149.11902 | 35282 ft | 517 kts | 33° |
| 2026-05-07 12:07 | -33.02880 | 149.17105 | 35251 ft | 517 kts | 33° |
| 2026-05-07 12:07 | -32.97150 | 149.22309 | 35261 ft | 516 kts | 33° |
| 2026-05-07 12:08 | -32.91440 | 149.27495 | 35250 ft | 516 kts | 33° |
| 2026-05-07 12:08 | -32.85738 | 149.32658 | 35263 ft | 508 kts | 32° |
| 2026-05-07 12:09 | -32.80150 | 149.37711 | 35292 ft | 503 kts | 32° |
| 2026-05-07 12:09 | -32.74576 | 149.42743 | 35298 ft | 503 kts | 32° |
| 2026-05-07 12:10 | -32.69044 | 149.47731 | 35301 ft | 503 kts | 31° |
| 2026-05-07 12:10 | -32.63466 | 149.52745 | 35302 ft | 503 kts | 31° |
| 2026-05-07 12:11 | -32.57882 | 149.57766 | 35339 ft | 504 kts | 31° |
| 2026-05-07 12:11 | -32.52225 | 149.62657 | 35331 ft | 501 kts | 29° |
| 2026-05-07 12:12 | -32.46552 | 149.67418 | 35332 ft | 499 kts | 28° |
| 2026-05-07 12:12 | -32.40926 | 149.72146 | 35313 ft | 497 kts | 28° |
| 2026-05-07 12:13 | -32.35298 | 149.76880 | 35278 ft | 496 kts | 28° |
| 2026-05-07 12:13 | -32.29668 | 149.81596 | 35249 ft | 495 kts | 28° |
| 2026-05-07 12:14 | -32.24040 | 149.86308 | 35244 ft | 496 kts | 28° |
| 2026-05-07 12:14 | -32.18407 | 149.91020 | 35223 ft | 497 kts | 28° |
| 2026-05-07 12:15 | -32.12761 | 149.95742 | 35230 ft | 498 kts | 28° |
| 2026-05-07 12:15 | -32.07139 | 150.00417 | 35259 ft | 497 kts | 27° |
| 2026-05-07 12:16 | -32.01469 | 150.05132 | 35229 ft | 498 kts | 27° |
| 2026-05-07 12:16 | -31.95805 | 150.09837 | 35227 ft | 499 kts | 27° |
| 2026-05-07 12:17 | -31.90132 | 150.14553 | 35237 ft | 498 kts | 27° |
| 2026-05-07 12:17 | -31.84470 | 150.19246 | 35211 ft | 498 kts | 27° |
| 2026-05-07 12:18 | -31.78801 | 150.23929 | 35242 ft | 497 kts | 27° |
| 2026-05-07 12:18 | -31.73164 | 150.28590 | 35217 ft | 498 kts | 27° |
| 2026-05-07 12:19 | -31.67487 | 150.33268 | 35226 ft | 498 kts | 27° |
| 2026-05-07 12:19 | -31.61807 | 150.37935 | 35224 ft | 497 kts | 27° |
| 2026-05-07 12:20 | -31.56133 | 150.42602 | 35207 ft | 498 kts | 27° |
| 2026-05-07 12:20 | -31.50491 | 150.47246 | 35223 ft | 498 kts | 26° |
| 2026-05-07 12:21 | -31.44801 | 150.51894 | 35213 ft | 498 kts | 26° |
| 2026-05-07 12:21 | -31.39108 | 150.56550 | 35233 ft | 498 kts | 26° |
| 2026-05-07 12:22 | -31.34388 | 150.60424 | 35238 ft | 499 kts | 26° |
| 2026-05-07 12:22 | -31.28700 | 150.65073 | 35247 ft | 499 kts | 26° |
| 2026-05-07 12:23 | -31.22999 | 150.69699 | 35264 ft | 498 kts | 25° |
| 2026-05-07 12:23 | -31.17318 | 150.74328 | 35309 ft | 497 kts | 25° |
| 2026-05-07 12:24 | -31.11634 | 150.78949 | 35244 ft | 498 kts | 26° |
| 2026-05-07 12:24 | -31.06032 | 150.83632 | 35209 ft | 504 kts | 31° |
| 2026-05-07 12:25 | -31.00738 | 150.89051 | 35230 ft | 507 kts | 33° |
| 2026-05-07 12:25 | -30.95526 | 150.94610 | 35214 ft | 508 kts | 33° |
| 2026-05-07 12:26 | -30.90257 | 151.00081 | 35222 ft | 507 kts | 32° |
| 2026-05-07 12:26 | -30.84959 | 151.05537 | 35213 ft | 508 kts | 32° |
| 2026-05-07 12:27 | -30.79680 | 151.11016 | 35229 ft | 508 kts | 32° |
| 2026-05-07 12:27 | -30.74409 | 151.16487 | 35240 ft | 508 kts | 32° |
| 2026-05-07 12:28 | -30.69125 | 151.21947 | 35216 ft | 508 kts | 32° |
| 2026-05-07 12:28 | -30.63869 | 151.27359 | 35236 ft | 508 kts | 32° |
| 2026-05-07 12:29 | -30.58593 | 151.32810 | 35280 ft | 507 kts | 32° |
| 2026-05-07 12:29 | -30.53308 | 151.38247 | 35253 ft | 507 kts | 31° |
| 2026-05-07 12:30 | -30.48010 | 151.43673 | 35209 ft | 507 kts | 31° |
| 2026-05-07 12:30 | -30.42720 | 151.49097 | 35190 ft | 507 kts | 31° |
| 2026-05-07 12:31 | -30.37461 | 151.54485 | 35192 ft | 507 kts | 31° |
| 2026-05-07 12:31 | -30.32156 | 151.59901 | 35191 ft | 508 kts | 31° |
| 2026-05-07 12:32 | -30.26861 | 151.65317 | 35203 ft | 508 kts | 31° |
| 2026-05-07 12:32 | -30.21557 | 151.70721 | 35183 ft | 508 kts | 31° |
| 2026-05-07 12:33 | -30.13599 | 151.78818 | 35188 ft | 508 kts | 30° |
| 2026-05-07 12:33 | -30.08300 | 151.84199 | 35232 ft | 506 kts | 30° |
| 2026-05-07 12:34 | -30.03041 | 151.89533 | 35198 ft | 507 kts | 30° |
| 2026-05-07 12:34 | -29.97732 | 151.94905 | 35162 ft | 507 kts | 30° |
| 2026-05-07 12:35 | -29.92423 | 152.00271 | 35154 ft | 507 kts | 30° |
| 2026-05-07 12:35 | -29.87117 | 152.05628 | 35157 ft | 507 kts | 30° |
| 2026-05-07 12:36 | -29.81811 | 152.10975 | 35151 ft | 507 kts | 30° |
| 2026-05-07 12:36 | -29.76497 | 152.16327 | 35154 ft | 507 kts | 30° |
| 2026-05-07 12:37 | -29.71213 | 152.21634 | 35153 ft | 507 kts | 30° |
| 2026-05-07 12:37 | -29.65886 | 152.26977 | 35144 ft | 508 kts | 30° |
| 2026-05-07 12:38 | -29.60563 | 152.32313 | 35140 ft | 508 kts | 30° |
| 2026-05-07 12:38 | -29.55229 | 152.37650 | 35135 ft | 508 kts | 30° |
| 2026-05-07 12:39 | -29.49890 | 152.42980 | 35125 ft | 509 kts | 30° |
| 2026-05-07 12:39 | -29.44552 | 152.48310 | 35129 ft | 508 kts | 29° |
| 2026-05-07 12:40 | -29.39220 | 152.53627 | 35182 ft | 507 kts | 29° |
| 2026-05-07 12:40 | -29.33888 | 152.58926 | 35167 ft | 508 kts | 29° |
| 2026-05-07 12:41 | -29.28544 | 152.64231 | 35161 ft | 508 kts | 29° |
| 2026-05-07 12:41 | -29.23229 | 152.69505 | 35148 ft | 508 kts | 29° |
| 2026-05-07 12:42 | -29.17874 | 152.74811 | 34714 ft | 507 kts | 29° |
| 2026-05-07 12:42 | -29.15233 | 152.77437 | 34374 ft | 498 kts | 29° |
| 2026-05-07 12:42 | -29.12638 | 152.80018 | 34134 ft | 494 kts | 28° |
| 2026-05-07 12:43 | -29.10035 | 152.82583 | 33901 ft | 494 kts | 28° |
| 2026-05-07 12:43 | -29.07427 | 152.85139 | 33655 ft | 494 kts | 28° |
| 2026-05-07 12:43 | -29.04819 | 152.87700 | 33409 ft | 494 kts | 29° |
| 2026-05-07 12:43 | -29.02221 | 152.90265 | 33158 ft | 492 kts | 29° |
| 2026-05-07 12:44 | -28.99640 | 152.92819 | 32910 ft | 490 kts | 29° |
| 2026-05-07 12:44 | -28.97070 | 152.95357 | 32664 ft | 487 kts | 29° |
| 2026-05-07 12:44 | -28.94539 | 152.97847 | 32421 ft | 485 kts | 29° |
| 2026-05-07 12:44 | -28.91984 | 153.00355 | 32175 ft | 483 kts | 29° |
| 2026-05-07 12:45 | -28.89403 | 153.02746 | 31906 ft | 472 kts | 24° |
| 2026-05-07 12:45 | -28.86645 | 153.04650 | 31659 ft | 453 kts | 13° |
| 2026-05-07 12:45 | -28.83762 | 153.05914 | 31415 ft | 433 kts | 2° |
| 2026-05-07 12:45 | -28.80860 | 153.06682 | 31285 ft | 427 kts | 359° |
| 2026-05-07 12:46 | -28.77952 | 153.07336 | 31000 ft | 424 kts | 358° |
| 2026-05-07 12:46 | -28.75077 | 153.07988 | 30580 ft | 419 kts | 359° |
| 2026-05-07 12:46 | -28.72217 | 153.08691 | 30325 ft | 420 kts | 0° |
| 2026-05-07 12:46 | -28.69368 | 153.09438 | 30071 ft | 419 kts | 1° |
| 2026-05-07 12:47 | -28.66539 | 153.10199 | 29838 ft | 418 kts | 1° |
| 2026-05-07 12:47 | -28.63702 | 153.10952 | 29443 ft | 417 kts | 1° |
| 2026-05-07 12:47 | -28.60873 | 153.11684 | 28732 ft | 418 kts | 1° |
| 2026-05-07 12:47 | -28.58045 | 153.12398 | 27743 ft | 426 kts | 2° |
| 2026-05-07 12:48 | -28.55115 | 153.13134 | 26696 ft | 435 kts | 3° |
| 2026-05-07 12:48 | -28.52157 | 153.13891 | 25982 ft | 435 kts | 4° |
| 2026-05-07 12:48 | -28.49238 | 153.14658 | 25559 ft | 423 kts | 4° |
| 2026-05-07 12:48 | -28.46420 | 153.15406 | 25245 ft | 409 kts | 4° |
| 2026-05-07 12:49 | -28.43677 | 153.16122 | 24755 ft | 400 kts | 4° |
| 2026-05-07 12:49 | -28.40971 | 153.16810 | 24067 ft | 397 kts | 4° |
| 2026-05-07 12:49 | -28.38283 | 153.17485 | 23381 ft | 394 kts | 5° |
| 2026-05-07 12:49 | -28.35611 | 153.18162 | 22713 ft | 391 kts | 5° |
| 2026-05-07 12:50 | -28.32964 | 153.18840 | 22036 ft | 389 kts | 5° |
| 2026-05-07 12:50 | -28.30336 | 153.19515 | 21359 ft | 386 kts | 6° |
| 2026-05-07 12:50 | -28.27722 | 153.20187 | 20690 ft | 383 kts | 6° |
| 2026-05-07 12:50 | -28.25159 | 153.20845 | 20056 ft | 381 kts | 6° |
| 2026-05-07 12:51 | -28.22581 | 153.21505 | 19537 ft | 378 kts | 7° |
| 2026-05-07 12:51 | -28.20015 | 153.22142 | 19002 ft | 375 kts | 5° |
| 2026-05-07 12:51 | -28.17455 | 153.22635 | 18486 ft | 372 kts | 3° |
| 2026-05-07 12:51 | -28.14906 | 153.23079 | 17971 ft | 370 kts | 3° |
| 2026-05-07 12:52 | -28.12367 | 153.23502 | 17455 ft | 367 kts | 3° |
| 2026-05-07 12:52 | -28.09841 | 153.23925 | 16957 ft | 365 kts | 3° |
| 2026-05-07 12:52 | -28.07330 | 153.24357 | 16450 ft | 363 kts | 3° |
| 2026-05-07 12:52 | -28.04844 | 153.24790 | 15968 ft | 360 kts | 4° |
| 2026-05-07 12:53 | -28.02370 | 153.25223 | 15465 ft | 358 kts | 4° |
| 2026-05-07 12:53 | -27.99914 | 153.25651 | 14975 ft | 356 kts | 4° |
| 2026-05-07 12:53 | -27.97479 | 153.26071 | 14548 ft | 351 kts | 4° |
| 2026-05-07 12:53 | -27.95115 | 153.26479 | 14127 ft | 346 kts | 4° |
| 2026-05-07 12:54 | -27.92735 | 153.26892 | 13608 ft | 345 kts | 4° |
| 2026-05-07 12:54 | -27.90364 | 153.27302 | 13110 ft | 343 kts | 4° |
| 2026-05-07 12:54 | -27.88015 | 153.27707 | 12636 ft | 341 kts | 4° |
| 2026-05-07 12:54 | -27.85674 | 153.28108 | 12151 ft | 339 kts | 4° |
| 2026-05-07 12:55 | -27.83349 | 153.28511 | 11677 ft | 337 kts | 5° |
| 2026-05-07 12:55 | -27.81039 | 153.28909 | 11210 ft | 334 kts | 5° |
| 2026-05-07 12:55 | -27.78768 | 153.29301 | 10976 ft | 324 kts | 5° |
| 2026-05-07 12:55 | -27.76587 | 153.29682 | 10840 ft | 311 kts | 5° |
| 2026-05-07 12:56 | -27.74478 | 153.30048 | 10605 ft | 303 kts | 5° |
| 2026-05-07 12:56 | -27.72407 | 153.30404 | 10258 ft | 300 kts | 5° |
| 2026-05-07 12:56 | -27.70351 | 153.30755 | 9886 ft | 298 kts | 5° |
| 2026-05-07 12:56 | -27.68359 | 153.31097 | 9518 ft | 296 kts | 5° |
| 2026-05-07 12:57 | -27.66353 | 153.31441 | 9126 ft | 295 kts | 5° |
| 2026-05-07 12:57 | -27.64326 | 153.31775 | 8739 ft | 293 kts | 3° |
| 2026-05-07 12:57 | -27.62300 | 153.31950 | 8342 ft | 291 kts | 360° |
| 2026-05-07 12:57 | -27.60280 | 153.32039 | 7960 ft | 289 kts | 359° |
| 2026-05-07 12:58 | -27.58272 | 153.32104 | 7575 ft | 288 kts | 359° |
| 2026-05-07 12:58 | -27.56264 | 153.32188 | 7188 ft | 287 kts | 359° |
| 2026-05-07 12:58 | -27.54264 | 153.32292 | 6804 ft | 287 kts | 0° |
| 2026-05-07 12:58 | -27.52277 | 153.32401 | 6389 ft | 285 kts | 0° |
| 2026-05-07 12:59 | -27.50313 | 153.32496 | 5954 ft | 281 kts | 360° |
| 2026-05-07 12:59 | -27.48364 | 153.32586 | 5486 ft | 278 kts | 360° |
| 2026-05-07 12:59 | -27.46454 | 153.32674 | 5006 ft | 277 kts | 0° |
| 2026-05-07 12:59 | -27.44530 | 153.32772 | 4518 ft | 276 kts | 360° |
| 2026-05-07 13:00 | -27.42609 | 153.32866 | 4069 ft | 273 kts | 360° |
| 2026-05-07 13:00 | -27.40699 | 153.32954 | 3995 ft | 275 kts | 359° |
| 2026-05-07 13:00 | -27.38794 | 153.33043 | 3996 ft | 269 kts | 360° |
| 2026-05-07 13:00 | -27.36978 | 153.33136 | 3986 ft | 253 kts | 360° |
| 2026-05-07 13:01 | -27.35279 | 153.33141 | 3980 ft | 234 kts | 351° |
| 2026-05-07 13:01 | -27.33758 | 153.32884 | 4053 ft | 218 kts | 345° |
| 2026-05-07 13:01 | -27.32301 | 153.32554 | 4027 ft | 211 kts | 344° |
| 2026-05-07 13:01 | -27.30886 | 153.32266 | 4007 ft | 199 kts | 346° |
| 2026-05-07 13:02 | -27.29549 | 153.32028 | 4003 ft | 191 kts | 346° |
| 2026-05-07 13:02 | -27.28242 | 153.31781 | 4006 ft | 190 kts | 344° |
| 2026-05-07 13:02 | -27.27027 | 153.31296 | 3987 ft | 178 kts | 322° |
| 2026-05-07 13:02 | -27.26096 | 153.30457 | 4003 ft | 168 kts | 311° |
| 2026-05-07 13:03 | -27.25222 | 153.29582 | 4002 ft | 168 kts | 312° |
| 2026-05-07 13:03 | -27.24319 | 153.28731 | 4002 ft | 169 kts | 313° |
| 2026-05-07 13:03 | -27.23407 | 153.27896 | 4000 ft | 169 kts | 314° |
| 2026-05-07 13:03 | -27.22507 | 153.27065 | 4000 ft | 169 kts | 313° |
| 2026-05-07 13:04 | -27.21599 | 153.26223 | 4000 ft | 169 kts | 313° |
| 2026-05-07 13:04 | -27.20702 | 153.25370 | 3992 ft | 167 kts | 308° |
| 2026-05-07 13:04 | -27.20186 | 153.24281 | 3978 ft | 154 kts | 269° |
| 2026-05-07 13:04 | -27.20495 | 153.23190 | 3954 ft | 148 kts | 228° |
| 2026-05-07 13:05 | -27.21366 | 153.22618 | 3837 ft | 146 kts | 204° |
| 2026-05-07 13:05 | -27.22278 | 153.22134 | 3622 ft | 143 kts | 209° |
| 2026-05-07 13:05 | -27.23120 | 153.21623 | 3385 ft | 132 kts | 209° |
| 2026-05-07 13:05 | -27.23938 | 153.21142 | 3284 ft | 134 kts | 208° |
| 2026-05-07 13:06 | -27.24768 | 153.20679 | 3100 ft | 130 kts | 207° |
| 2026-05-07 13:06 | -27.25577 | 153.20224 | 2966 ft | 131 kts | 208° |
| 2026-05-07 13:06 | -27.26395 | 153.19754 | 2978 ft | 132 kts | 208° |
| 2026-05-07 13:06 | -27.27238 | 153.19270 | 2735 ft | 142 kts | 208° |
| 2026-05-07 13:07 | -27.28124 | 153.18762 | 2334 ft | 142 kts | 208° |
| 2026-05-07 13:07 | -27.29009 | 153.18257 | 1830 ft | 147 kts | 208° |
| 2026-05-07 13:07 | -27.29903 | 153.17750 | 1554 ft | 136 kts | 209° |
| 2026-05-07 13:07 | -27.30713 | 153.17289 | 1489 ft | 127 kts | 209° |
| 2026-05-07 13:08 | -27.31513 | 153.16829 | 1352 ft | 134 kts | 210° |
| 2026-05-07 13:08 | -27.32073 | 153.16510 | 1229 ft | 136 kts | 210° |
| 2026-05-07 13:08 | -27.32916 | 153.16031 | 1047 ft | 136 kts | 210° |
| 2026-05-07 13:08 | -27.33759 | 153.15549 | 866 ft | 136 kts | 210° |
| 2026-05-07 13:09 | -27.34599 | 153.15069 | 686 ft | 135 kts | 210° |
| 2026-05-07 13:09 | -27.35435 | 153.14592 | 508 ft | 135 kts | 210° |
| 2026-05-07 13:09 | -27.36269 | 153.14115 | 329 ft | 134 kts | 210° |
| 2026-05-07 13:09 | -27.37101 | 153.13639 | 153 ft | 134 kts | 210° |
| 2026-05-07 13:10 | -27.37924 | 153.13170 | 29 ft | 131 kts | 205° |
| 2026-05-07 13:10 | -27.38544 | 153.12816 | 27 ft | 58 kts | 208° |
| 2026-05-07 13:10 | -27.38715 | 153.12716 | 28 ft | 15 kts | 207° |
| 2026-05-07 13:10 | -27.38823 | 153.12650 | 27 ft | 19 kts | 209° |
| 2026-05-07 13:11 | -27.38907 | 153.12579 | 28 ft | 15 kts | 219° |
| 2026-05-07 13:11 | -27.38979 | 153.12498 | 28 ft | 15 kts | 230° |
| 2026-05-07 13:11 | -27.39035 | 153.12413 | 28 ft | 12 kts | 235° |
| 2026-05-07 13:11 | -27.39074 | 153.12349 | 27 ft | 6 kts | 237° |
| 2026-05-07 13:12 | -27.39076 | 153.12346 | 28 ft | 0 kts | 237° |
| 2026-05-07 13:12 | -27.39078 | 153.12341 | 28 ft | 3 kts | 237° |
| 2026-05-07 13:12 | -27.39099 | 153.12304 | 28 ft | 9 kts | 237° |
| 2026-05-07 13:12 | -27.39136 | 153.12240 | 28 ft | 11 kts | 243° |
| 2026-05-07 13:13 | -27.39123 | 153.12162 | 28 ft | 12 kts | 320° |
| 2026-05-07 13:13 | -27.39043 | 153.12165 | 27 ft | 12 kts | 27° |
| 2026-05-07 13:13 | -27.38956 | 153.12215 | 27 ft | 16 kts | 27° |
| 2026-05-07 13:13 | -27.38878 | 153.12259 | 28 ft | 11 kts | 27° |
| 2026-05-07 13:14 | -27.38795 | 153.12307 | 27 ft | 15 kts | 27° |
| 2026-05-07 13:14 | -27.38704 | 153.12359 | 28 ft | 13 kts | 27° |
| 2026-05-07 13:14 | -27.38634 | 153.12399 | 28 ft | 10 kts | 25° |
| 2026-05-07 13:14 | -27.38562 | 153.12383 | 28 ft | 11 kts | 311° |
| 2026-05-07 13:15 | -27.38528 | 153.12330 | 28 ft | 7 kts | 281° |
| 2026-05-07 13:15 | -27.38538 | 153.12286 | 28 ft | 5 kts | 245° |
| 2026-05-07 13:15 | -27.38554 | 153.12253 | 28 ft | 2 kts | 242° |
| 2026-05-07 13:15 | -27.38556 | 153.12248 | 28 ft | 1 kts | 242° |
| 2026-05-07 13:16 | -27.38562 | 153.12237 | 28 ft | 1 kts | 240° |
| 2026-05-07 13:16 | -27.38563 | 153.12234 | 28 ft | 0 kts | 240° |